This is the latest recevied weather packets stored in our database for station/object OK0EK-11. If no packets are shown the sender has not sent any weather packets the latest 10 day(s).
| Time | Temp. | Humidity | Pressure | Rain* | Wind** | Luminosity | Snow |
|---|---|---|---|---|---|---|---|
| 1787847747 | 20° C | 54% | 1021.1 hPa | - | - | - | - |
| 1787847148 | 20.56° C | 52% | 1021 hPa | - | - | - | - |
| 1787846548 | 21.11° C | 51% | 1021.1 hPa | - | - | - | - |
| 1787845948 | 21.11° C | 50% | 1021.1 hPa | - | - | - | - |
| 1787845349 | 21.67° C | 49% | 1021.1 hPa | - | - | - | - |
| 1787844749 | 21.67° C | 48% | 1021.3 hPa | - | - | - | - |
| 1787844149 | 22.22° C | 47% | 1021.3 hPa | - | - | - | - |
| 1787843549 | 22.22° C | 47% | 1021.3 hPa | - | - | - | - |
| 1787842950 | 22.22° C | 48% | 1021.2 hPa | - | - | - | - |
| 1787842350 | 22.22° C | 48% | 1021.3 hPa | - | - | - | - |
| 1787841750 | 22.78° C | 47% | 1021.2 hPa | - | - | - | - |
| 1787841149 | 22.78° C | 48% | 1021.2 hPa | - | - | - | - |
| 1787840549 | 22.78° C | 47% | 1021.4 hPa | - | - | - | - |
| 1787839950 | 22.78° C | 49% | 1021.4 hPa | - | - | - | - |
| 1787839350 | 22.78° C | 48% | 1021.3 hPa | - | - | - | - |
| 1787838750 | 22.78° C | 49% | 1021.3 hPa | - | - | - | - |
| 1787838151 | 22.22° C | 50% | 1021.4 hPa | - | - | - | - |
| 1787837551 | 22.78° C | 51% | 1021.2 hPa | - | - | - | - |
| 1787836950 | 22.78° C | 50% | 1021.4 hPa | - | - | - | - |
| 1787836350 | 21.67° C | 53% | 1021.3 hPa | - | - | - | - |
| 1787835750 | 22.22° C | 53% | 1021.3 hPa | - | - | - | - |
| 1787835150 | 21.67° C | 54% | 1021.4 hPa | - | - | - | - |
| 1787834549 | 21.67° C | 56% | 1021.3 hPa | - | - | - | - |
| 1787833949 | 21.11° C | 56% | 1021.3 hPa | - | - | - | - |
| 1787833349 | 21.11° C | 57% | 1021.4 hPa | - | - | - | - |
* Rain since midnight (hover to see other rain measurements)
** Current wind speed in m/s (hover to see current wind gust speed)